createdAt,value
2019-04-14T00:04:48.687Z,101758.60
2019-04-14T00:09:54.254Z,101757.63
2019-04-14T00:14:59.892Z,101751.92
2019-04-14T00:20:05.581Z,101749.05
2019-04-14T00:25:11.436Z,101742.78
2019-04-14T00:30:18.802Z,101744.11
2019-04-14T00:35:43.527Z,101734.27
2019-04-14T00:40:56.689Z,101731.27
2019-04-14T00:46:07.966Z,101731.91
2019-04-14T00:51:13.629Z,101731.84
2019-04-14T00:56:19.503Z,101729.27
2019-04-14T01:01:26.269Z,101731.05
2019-04-14T01:06:32.176Z,101732.67
2019-04-14T01:11:37.882Z,101733.42
2019-04-14T01:16:43.347Z,101733.39
2019-04-14T01:21:48.775Z,101736.16
2019-04-14T01:26:55.039Z,101741.13
2019-04-14T01:32:00.619Z,101734.80
2019-04-14T01:37:07.202Z,101737.11
2019-04-14T01:42:13.747Z,101732.95
2019-04-14T01:47:20.488Z,101733.62
2019-04-14T01:52:43.676Z,101735.97
2019-04-14T01:58:23.232Z,101737.32
2019-04-14T02:03:28.764Z,101734.59
2019-04-14T02:08:35.206Z,101736.61
2019-04-14T02:13:42.014Z,101735.88
2019-04-14T02:18:50.642Z,101737.77
2019-04-14T02:23:56.056Z,101735.86
2019-04-14T02:29:01.577Z,101739.20
2019-04-14T02:34:43.775Z,101744.69
2019-04-14T02:39:46.752Z,101746.27
2019-04-14T02:44:57.739Z,101748.22
2019-04-14T02:50:02.480Z,101755.05
2019-04-14T02:54:59.545Z,101747.80
2019-04-14T03:00:11.320Z,101745.63
2019-04-14T03:05:27.063Z,101742.16
2019-04-14T03:10:25.860Z,101740.36
2019-04-14T03:15:37.835Z,101738.92
2019-04-14T03:21:13.456Z,101742.19
2019-04-14T03:26:40.348Z,101740.91
2019-04-14T03:32:00.016Z,101741.63
2019-04-14T03:37:31.526Z,101739.67
2019-04-14T03:42:01.543Z,101742.90
2019-04-14T03:47:05.258Z,101738.98
2019-04-14T03:52:13.014Z,101744.09
2019-04-14T03:56:55.664Z,101739.48
2019-04-14T04:02:01.350Z,101740.14
2019-04-14T04:07:08.126Z,101749.04
2019-04-14T04:12:13.983Z,101756.67
2019-04-14T04:17:45.145Z,101758.31
2019-04-14T04:23:18.931Z,101750.71
2019-04-14T04:28:43.421Z,101757.95
2019-04-14T04:34:09.915Z,101764.70
2019-04-14T04:39:19.803Z,101769.04
2019-04-14T04:44:26.939Z,101776.69
2019-04-14T04:49:33.077Z,101781.08
2019-04-14T04:54:40.679Z,101781.64
2019-04-14T04:59:47.411Z,101784.98
2019-04-14T05:04:53.262Z,101782.13
2019-04-14T05:10:28.364Z,101778.68
2019-04-14T05:15:44.617Z,101781.03
2019-04-14T05:20:51.015Z,101778.20
2019-04-14T05:25:58.041Z,101783.23
2019-04-14T05:31:03.782Z,101778.52
2019-04-14T05:36:10.636Z,101782.91
2019-04-14T05:41:16.279Z,101780.88
2019-04-14T05:46:22.977Z,101783.50
2019-04-14T05:51:28.577Z,101782.98
2019-04-14T05:56:35.884Z,101785.23
2019-04-14T06:01:42.055Z,101782.23
2019-04-14T06:06:47.597Z,101789.30
2019-04-14T06:11:53.050Z,101792.52
2019-04-14T06:16:58.491Z,101791.06
2019-04-14T06:22:03.933Z,101791.57
2019-04-14T06:27:09.462Z,101796.46
2019-04-14T06:32:32.459Z,101795.30
2019-04-14T06:37:43.299Z,101786.56
2019-04-14T06:42:48.798Z,101781.23
2019-04-14T06:47:54.242Z,101780.88
2019-04-14T06:52:59.695Z,101772.81
2019-04-14T06:58:05.135Z,101773.75
2019-04-14T07:03:10.612Z,101775.15
2019-04-14T07:08:16.082Z,101782.84
2019-04-14T07:13:21.662Z,101782.41
2019-04-14T07:18:27.120Z,101788.81
2019-04-14T07:23:32.688Z,101787.61
2019-04-14T07:28:38.178Z,101799.56
2019-04-14T07:34:02.585Z,101798.91
2019-04-14T07:39:30.004Z,101796.11
2019-04-14T07:45:03.414Z,101793.80
2019-04-14T07:50:46.155Z,101797.54
2019-04-14T07:56:13.529Z,101795.38
2019-04-14T08:01:25.994Z,101791.69
2019-04-14T08:06:32.210Z,101785.45
2019-04-14T08:11:38.060Z,101787.77
2019-04-14T08:16:43.749Z,101780.61
2019-04-14T08:21:49.357Z,101788.42
2019-04-14T08:26:54.809Z,101777.14
2019-04-14T08:32:00.319Z,101783.13
2019-04-14T08:37:05.883Z,101791.64
2019-04-14T08:42:20.859Z,101794.36
2019-04-14T08:47:32.607Z,101781.41
2019-04-14T08:52:59.792Z,101780.26
2019-04-14T08:58:33.033Z,101773.92
2019-04-14T09:03:57.586Z,101771.23
2019-04-14T09:09:24.953Z,101763.43
2019-04-14T09:14:30.438Z,101758.39
2019-04-14T09:19:35.919Z,101761.42
2019-04-14T09:24:41.504Z,101749.57
2019-04-14T09:29:47.072Z,101743.42
2019-04-14T09:34:52.533Z,101743.88
2019-04-14T09:39:57.989Z,101736.14
2019-04-14T09:45:03.526Z,101731.98
2019-04-14T09:50:08.960Z,101744.17
2019-04-14T09:55:14.975Z,101749.18
2019-04-14T10:00:21.081Z,101769.25
2019-04-14T10:05:26.676Z,101770.35
2019-04-14T10:10:32.098Z,101783.44
2019-04-14T10:15:40.259Z,101773.43
2019-04-14T10:20:46.300Z,101770.89
2019-04-14T10:25:52.419Z,101781.75
2019-04-14T10:30:57.944Z,101773.30
2019-04-14T10:36:03.391Z,101773.27
2019-04-14T10:41:08.864Z,101770.62
2019-04-14T10:46:14.311Z,101780.93
2019-04-14T10:51:29.526Z,101771.39
2019-04-14T10:56:27.102Z,101778.56
2019-04-14T11:01:32.617Z,101770.95
2019-04-14T11:06:41.628Z,101771.13
2019-04-14T11:11:47.112Z,101773.50
2019-04-14T11:16:52.684Z,101765.84
2019-04-14T11:21:58.251Z,101765.67
2019-04-14T11:27:03.738Z,101763.89
2019-04-14T11:32:28.179Z,101754.80
2019-04-14T11:37:58.416Z,101762.95
2019-04-14T11:43:04.088Z,101756.47
2019-04-14T11:48:09.563Z,101756.70
2019-04-14T11:53:15.063Z,101752.48
2019-04-14T11:58:20.534Z,101750.05
2019-04-14T12:03:41.549Z,101754.58
2019-04-14T12:09:05.880Z,101762.31
2019-04-14T12:14:11.570Z,101764.51
2019-04-14T12:19:17.050Z,101760.44
2019-04-14T12:24:22.483Z,101750.31
2019-04-14T12:29:28.233Z,101759.66
2019-04-14T12:34:33.716Z,101751.80
2019-04-14T12:39:39.279Z,101751.33
2019-04-14T12:45:03.609Z,101747.16
2019-04-14T12:50:17.519Z,101744.63
2019-04-14T12:55:22.935Z,101741.73
2019-04-14T13:00:53.389Z,101743.02
2019-04-14T13:05:58.915Z,101754.80
2019-04-14T13:11:05.097Z,101740.44
2019-04-14T13:16:10.569Z,101735.16
2019-04-14T13:21:16.006Z,101745.95
2019-04-14T13:26:21.411Z,101725.84
2019-04-14T13:31:26.852Z,101722.93
2019-04-14T13:36:32.287Z,101725.93
2019-04-14T13:41:38.350Z,101724.52
2019-04-14T13:46:43.833Z,101734.00
2019-04-14T13:51:49.250Z,101723.55
2019-04-14T13:56:54.825Z,101707.66
2019-04-14T14:02:00.227Z,101707.05
2019-04-14T14:07:06.290Z,101709.65
2019-04-14T14:12:23.144Z,101712.44
2019-04-14T14:17:39.751Z,101713.64
2019-04-14T14:23:01.187Z,101712.04
2019-04-14T14:28:06.665Z,101706.05
2019-04-14T14:33:12.074Z,101694.58
2019-04-14T14:38:17.568Z,101715.66
2019-04-14T14:43:23.135Z,101701.34
2019-04-14T14:48:38.500Z,101702.08
2019-04-14T14:53:43.988Z,101698.94
2019-04-14T14:58:49.463Z,101704.03
2019-04-14T15:03:55.015Z,101711.64
2019-04-14T15:09:00.505Z,101710.61
2019-04-14T15:14:06.976Z,101705.11
2019-04-14T15:19:12.539Z,101699.36
2019-04-14T15:24:18.115Z,101720.45
2019-04-14T15:29:23.613Z,101732.88
2019-04-14T15:34:29.148Z,101719.81
2019-04-14T15:39:37.412Z,101717.20
2019-04-14T15:44:41.721Z,101724.52
2019-04-14T15:49:47.219Z,101733.12
2019-04-14T15:54:52.783Z,101730.45
2019-04-14T16:00:11.445Z,101743.27
2019-04-14T16:05:26.486Z,101749.81
2019-04-14T16:10:48.749Z,101758.66
2019-04-14T16:15:59.944Z,101756.77
2019-04-14T16:21:05.474Z,101767.84
2019-04-14T16:26:29.840Z,101766.94
2019-04-14T16:32:03.326Z,101788.20
2019-04-14T16:37:08.861Z,101770.75
2019-04-14T16:42:14.323Z,101782.92
2019-04-14T16:47:19.741Z,101791.87
2019-04-14T16:52:33.714Z,101805.23
2019-04-14T16:57:56.875Z,101817.41
2019-04-14T17:03:02.430Z,101821.82
2019-04-14T17:08:07.905Z,101825.09
2019-04-14T17:13:13.435Z,101836.63
2019-04-14T17:18:35.126Z,101845.13
2019-04-14T17:23:45.360Z,101850.95
2019-04-14T17:28:58.178Z,101850.67
2019-04-14T17:34:14.116Z,101851.70
2019-04-14T17:39:28.473Z,101862.80
2019-04-14T17:44:41.319Z,101858.68
2019-04-14T17:50:11.451Z,101870.48
2019-04-14T17:55:33.248Z,101874.44
2019-04-14T18:01:03.473Z,101882.91
2019-04-14T18:06:33.614Z,101888.09
2019-04-14T18:11:43.482Z,101895.48
2019-04-14T18:17:10.561Z,101898.00
2019-04-14T18:22:15.983Z,101912.69
2019-04-14T18:27:21.536Z,101900.92
2019-04-14T18:32:46.830Z,101911.58
2019-04-14T18:38:14.819Z,101911.93
2019-04-14T18:43:36.715Z,101922.69
2019-04-14T18:49:07.069Z,101926.73
2019-04-14T18:54:34.655Z,101940.02
2019-04-14T18:59:57.673Z,101940.68
2019-04-14T19:05:03.149Z,101959.98
2019-04-14T19:10:08.976Z,101965.87
2019-04-14T19:15:36.016Z,101972.72
2019-04-14T19:20:45.091Z,101976.92
2019-04-14T19:25:50.591Z,101989.20
2019-04-14T19:30:56.041Z,102000.14
2019-04-14T19:36:01.452Z,102008.92
2019-04-14T19:41:07.174Z,102011.66
2019-04-14T19:46:12.629Z,102016.06
2019-04-14T19:51:18.228Z,102018.53
2019-04-14T19:56:23.661Z,102023.07
2019-04-14T20:01:29.120Z,102024.78
2019-04-14T20:06:34.569Z,102031.66
2019-04-14T20:11:40.056Z,102033.41
2019-04-14T20:16:56.760Z,102038.19
2019-04-14T20:22:17.298Z,102051.27
2019-04-14T20:27:53.771Z,102056.22
2019-04-14T20:32:59.276Z,102076.34
2019-04-14T20:38:04.684Z,102073.05
2019-04-14T20:43:10.308Z,102074.85
2019-04-14T20:48:15.795Z,102071.65
2019-04-14T20:53:21.205Z,102067.64
2019-04-14T20:58:26.612Z,102067.92
2019-04-14T21:03:49.100Z,102057.80
2019-04-14T21:09:09.363Z,102056.16
2019-04-14T21:14:33.826Z,102054.28
2019-04-14T21:20:06.998Z,102057.06
2019-04-14T21:25:40.215Z,102062.64
2019-04-14T21:31:19.453Z,102062.70
2019-04-14T21:36:29.808Z,102072.72
2019-04-14T21:41:35.473Z,102075.82
2019-04-14T21:46:40.948Z,102071.36
2019-04-14T21:52:10.600Z,102073.12
2019-04-14T21:57:34.918Z,102073.47
2019-04-14T22:02:57.486Z,102073.47
2019-04-14T22:08:15.385Z,102073.61
2019-04-14T22:13:21.005Z,102080.94
2019-04-14T22:18:26.518Z,102070.80
2019-04-14T22:23:31.972Z,102066.76
2019-04-14T22:28:37.441Z,102067.95
2019-04-14T22:33:42.879Z,102075.78
2019-04-14T22:38:48.313Z,102079.70
2019-04-14T22:43:53.851Z,102089.25
2019-04-14T22:48:59.262Z,102090.36
2019-04-14T22:54:04.673Z,102074.55
2019-04-14T22:59:10.157Z,102084.34
2019-04-14T23:04:40.436Z,102087.02
2019-04-14T23:09:54.066Z,102088.67
2019-04-14T23:15:21.788Z,102087.45
2019-04-14T23:20:35.638Z,102090.33
2019-04-14T23:25:41.098Z,102085.09
2019-04-14T23:30:46.622Z,102086.82
2019-04-14T23:35:52.257Z,102095.16
2019-04-14T23:40:57.684Z,102102.16
2019-04-14T23:46:03.231Z,102105.39
2019-04-14T23:51:08.831Z,102106.12
2019-04-14T23:56:14.285Z,102109.56
